Snaith, United Kingdom
Current Conditions -  °F | °C
As of 6:20 AM on Wednesday 22 Oct 2014 (Local Time) from EGCN Reporting Station
Clear Clear  
Wind Chill: 44°   Ceiling: Unl
Heat Index: 48°   Visibility: 6mi
Dew Point: 43°   Wind: 9mph
Humidity: 82%   Direction: 270°W
Pressure: 30.18"   Gusts: NA
Location:  53.69°N, 1.03°W
Report Text: EGCN 220520Z 27008KT CAVOK 09/06 Q1022
Loading
Personal Weather Stations






























Interactive Weather Map New forecast layout! Learn more

10-Day Weather Forecast

Advertisements
Track Severe Weather on mobile